Terminal Aerodrome Forecast
Issued by NWS

Home | Current Version | Previous Version | Text Only | Print | Product List | Glossary On
Versions: 1 2 3 4 5 6 7 8 9 10 11 12 13 14 15 16 17 18 19 20 21 22 23 24 25 26 27 28
795
FTUS41 KRNK 171139
TAFLWB
TAF
KLWB 171139Z 1712/1812 VRB03KT P6SM OVC120
     FM180300 00000KT P6SM SCT020 OVC070=

USA.gov is the U.S. government's official web portal to all federal, state and local government web resources and services.